createdAt,value
2023-02-27T00:02:45.853Z,4.07
2023-02-27T00:07:49.005Z,3.95
2023-02-27T00:12:51.723Z,3.95
2023-02-27T00:17:54.448Z,4.20
2023-02-27T00:22:57.097Z,3.38
2023-02-27T00:27:59.688Z,3.65
2023-02-27T00:33:02.610Z,3.53
2023-02-27T00:38:05.913Z,4.07
2023-02-27T00:43:08.673Z,3.23
2023-02-27T00:48:11.495Z,3.38
2023-02-27T00:53:14.072Z,3.35
2023-02-27T00:58:16.917Z,4.00
2023-02-27T01:03:19.687Z,3.60
2023-02-27T01:08:22.386Z,3.80
2023-02-27T01:13:25.056Z,4.18
2023-02-27T01:18:28.458Z,4.00
2023-02-27T01:23:31.622Z,4.05
2023-02-27T01:28:34.576Z,4.13
2023-02-27T01:33:37.227Z,4.90
2023-02-27T01:38:39.854Z,4.30
2023-02-27T01:43:57.963Z,4.75
2023-02-27T01:49:24.289Z,4.45
2023-02-27T01:54:27.281Z,4.60
2023-02-27T01:59:30.359Z,4.60
2023-02-27T02:04:39.581Z,4.18
2023-02-27T02:09:52.985Z,4.37
2023-02-27T02:14:55.754Z,4.78
2023-02-27T02:20:32.566Z,5.07
2023-02-27T02:25:55.396Z,4.90
2023-02-27T02:31:20.337Z,4.45
2023-02-27T02:36:52.129Z,4.55
2023-02-27T02:47:17.729Z,4.83
2023-02-27T02:52:20.479Z,4.30
2023-02-27T02:57:41.189Z,4.30
2023-02-27T03:02:51.010Z,4.15
2023-02-27T03:07:57.216Z,4.47
2023-02-27T03:13:09.090Z,4.60
2023-02-27T03:18:22.958Z,4.80
2023-02-27T03:23:31.801Z,4.70
2023-02-27T03:28:38.274Z,4.55
2023-02-27T03:33:51.218Z,5.10
2023-02-27T03:39:07.467Z,5.00
2023-02-27T03:44:29.018Z,5.15
2023-02-27T03:49:31.768Z,5.20
2023-02-27T03:54:39.833Z,5.10
2023-02-27T03:59:43.267Z,5.50
2023-02-27T04:04:46.754Z,4.93
2023-02-27T04:10:20.508Z,5.53
2023-02-27T04:15:41.704Z,5.00
2023-02-27T04:20:50.282Z,5.55
2023-02-27T04:26:22.509Z,5.43
2023-02-27T04:31:34.810Z,6.07
2023-02-27T04:36:48.189Z,5.63
2023-02-27T04:42:01.696Z,4.93
2023-02-27T04:47:08.510Z,5.28
2023-02-27T04:52:21.522Z,5.10
2023-02-27T04:57:32.257Z,5.70
2023-02-27T05:02:43.489Z,5.18
2023-02-27T05:07:54.662Z,5.63
2023-02-27T05:13:03.421Z,5.85
2023-02-27T05:18:12.658Z,5.40
2023-02-27T05:23:25.666Z,5.75
2023-02-27T05:28:35.206Z,5.43
2023-02-27T05:33:48.784Z,5.00
2023-02-27T05:39:00.353Z,5.03
2023-02-27T05:49:44.208Z,5.55
2023-02-27T05:55:00.134Z,5.60
2023-02-27T06:00:18.219Z,5.25
2023-02-27T06:05:20.915Z,4.65
2023-02-27T06:10:24.329Z,4.53
2023-02-27T06:15:27.675Z,4.55
2023-02-27T06:20:30.522Z,5.38
2023-02-27T06:25:33.591Z,4.63
2023-02-27T06:30:36.872Z,4.97
2023-02-27T06:35:39.852Z,5.22
2023-02-27T06:40:42.839Z,4.63
2023-02-27T06:45:45.783Z,4.53
2023-02-27T06:50:53.834Z,4.63
2023-02-27T06:55:56.478Z,5.03
2023-02-27T07:01:01.108Z,4.78
2023-02-27T07:06:04.057Z,4.13
2023-02-27T07:11:06.709Z,4.38
2023-02-27T07:16:09.420Z,4.22
2023-02-27T07:21:12.079Z,4.30
2023-02-27T07:26:14.722Z,4.45
2023-02-27T07:31:18.046Z,4.55
2023-02-27T07:36:20.765Z,4.55
2023-02-27T07:41:30.443Z,4.35
2023-02-27T07:46:36.461Z,4.18
2023-02-27T07:51:39.483Z,3.75
2023-02-27T07:56:42.165Z,4.30
2023-02-27T08:01:44.837Z,3.85
2023-02-27T08:06:47.615Z,3.75
2023-02-27T08:11:50.305Z,4.25
2023-02-27T08:16:52.995Z,3.50
2023-02-27T08:21:55.907Z,5.60
2023-02-27T08:26:58.703Z,3.53
2023-02-27T08:32:02.598Z,3.65
2023-02-27T08:37:05.337Z,3.75
2023-02-27T08:42:08.215Z,3.53
2023-02-27T08:47:11.238Z,4.30
2023-02-27T08:52:13.885Z,4.25
2023-02-27T08:57:16.497Z,4.60
2023-02-27T09:02:19.469Z,3.40
2023-02-27T09:07:22.185Z,3.70
2023-02-27T09:12:24.785Z,3.45
2023-02-27T09:17:27.473Z,3.67
2023-02-27T09:22:30.183Z,3.80
2023-02-27T09:27:32.811Z,3.42
2023-02-27T09:32:35.609Z,3.75
2023-02-27T09:37:38.465Z,3.35
2023-02-27T09:42:46.453Z,3.35
2023-02-27T09:47:54.043Z,3.50
2023-02-27T09:52:57.483Z,3.72
2023-02-27T09:58:24.570Z,3.90
2023-02-27T10:03:57.892Z,3.65
2023-02-27T10:09:37.988Z,3.35
2023-02-27T10:14:46.721Z,3.70
2023-02-27T10:19:52.006Z,3.50
2023-02-27T10:25:03.552Z,3.20
2023-02-27T10:30:29.846Z,3.65
2023-02-27T10:35:37.774Z,3.33
2023-02-27T10:40:42.088Z,3.20
2023-02-27T10:45:44.852Z,3.22
2023-02-27T10:50:52.461Z,2.97
2023-02-27T10:56:04.121Z,3.58
2023-02-27T11:01:09.713Z,3.50
2023-02-27T11:06:22.844Z,3.38
2023-02-27T11:11:28.967Z,3.47
2023-02-27T11:16:46.382Z,3.30
2023-02-27T11:22:16.406Z,3.25
2023-02-27T11:27:22.131Z,3.40
2023-02-27T11:32:26.828Z,3.53
2023-02-27T11:37:36.946Z,3.83
2023-02-27T11:42:55.827Z,3.17
2023-02-27T11:48:21.815Z,3.35
2023-02-27T11:53:42.683Z,3.22
2023-02-27T11:59:11.475Z,3.15
2023-02-27T12:04:41.706Z,3.13
2023-02-27T12:15:44.164Z,2.80
2023-02-27T12:20:59.341Z,3.08
2023-02-27T12:26:10.621Z,3.17
2023-02-27T12:31:35.004Z,2.40
2023-02-27T12:36:37.704Z,2.90
2023-02-27T12:42:07.849Z,2.75
2023-02-27T12:48:08.881Z,3.00
2023-02-27T12:53:33.029Z,3.15
2023-02-27T12:58:57.145Z,3.15
2023-02-27T13:04:15.762Z,3.33
2023-02-27T13:09:38.570Z,3.53
2023-02-27T13:15:04.218Z,3.80
2023-02-27T13:20:22.273Z,4.15
2023-02-27T13:25:25.728Z,4.00
2023-02-27T13:30:35.968Z,3.63
2023-02-27T13:35:58.034Z,4.10
2023-02-27T13:41:36.394Z,3.90
2023-02-27T13:46:39.171Z,4.32
2023-02-27T13:51:45.898Z,4.93
2023-02-27T13:57:05.360Z,5.72
2023-02-27T14:02:11.286Z,5.03
2023-02-27T14:07:21.648Z,4.93
2023-02-27T14:12:46.458Z,5.40
2023-02-27T14:17:59.631Z,4.28
2023-02-27T14:23:15.626Z,4.30
2023-02-27T14:28:56.043Z,4.78
2023-02-27T14:34:05.417Z,4.32
2023-02-27T14:39:20.779Z,5.43
2023-02-27T14:44:28.732Z,5.10
2023-02-27T14:49:35.234Z,4.60
2023-02-27T14:54:38.535Z,4.68
2023-02-27T14:59:59.882Z,4.60
2023-02-27T15:05:02.391Z,4.32
2023-02-27T15:10:11.101Z,4.68
2023-02-27T15:15:21.919Z,4.70
2023-02-27T15:20:30.919Z,4.97
2023-02-27T15:25:40.058Z,4.63
2023-02-27T15:30:47.649Z,5.30
2023-02-27T15:35:50.496Z,4.78
2023-02-27T15:40:53.834Z,4.00
2023-02-27T15:45:58.443Z,4.30
2023-02-27T15:51:03.989Z,3.95
2023-02-27T15:56:12.152Z,4.30
2023-02-27T16:01:21.062Z,4.50
2023-02-27T16:06:31.035Z,4.65
2023-02-27T16:11:37.509Z,4.60
2023-02-27T16:16:40.224Z,4.22
2023-02-27T16:22:07.108Z,4.50
2023-02-27T16:27:30.120Z,3.90
2023-02-27T16:32:41.600Z,4.25
2023-02-27T16:37:46.017Z,4.82
2023-02-27T16:42:48.920Z,4.97
2023-02-27T16:47:54.630Z,4.00
2023-02-27T16:52:57.648Z,4.23
2023-02-27T16:58:00.293Z,4.67
2023-02-27T17:03:05.649Z,4.43
2023-02-27T17:08:10.666Z,3.92
2023-02-27T17:13:14.151Z,3.10
2023-02-27T17:18:16.864Z,2.80
2023-02-27T17:23:19.992Z,3.17
2023-02-27T17:28:23.741Z,2.57
2023-02-27T17:33:26.528Z,3.07
2023-02-27T17:38:29.218Z,3.17
2023-02-27T17:43:31.914Z,3.47
2023-02-27T17:48:35.691Z,3.07
2023-02-27T17:53:38.855Z,3.50
2023-02-27T17:58:45.522Z,3.70
2023-02-27T18:03:49.407Z,3.20
2023-02-27T18:08:52.561Z,4.20
2023-02-27T18:13:55.358Z,5.00
2023-02-27T18:18:58.006Z,3.93
2023-02-27T18:24:01.470Z,3.77
2023-02-27T18:29:07.788Z,4.20
2023-02-27T18:34:11.304Z,3.80
2023-02-27T18:39:14.779Z,4.40
2023-02-27T18:44:17.702Z,4.30
2023-02-27T18:49:20.392Z,4.20
2023-02-27T18:54:23.094Z,4.40
2023-02-27T18:59:25.710Z,3.70
2023-02-27T19:04:31.628Z,4.30
2023-02-27T19:09:34.748Z,3.20
2023-02-27T19:14:38.747Z,3.83
2023-02-27T19:19:41.864Z,4.33
2023-02-27T19:24:48.188Z,3.83
2023-02-27T19:29:51.714Z,3.33
2023-02-27T19:34:54.340Z,3.90
2023-02-27T19:39:57.727Z,3.50
2023-02-27T19:45:00.531Z,3.77
2023-02-27T19:50:05.149Z,4.23
2023-02-27T19:55:08.277Z,4.03
2023-02-27T20:00:13.433Z,3.70
2023-02-27T20:05:16.139Z,4.13
2023-02-27T20:10:19.559Z,3.77
2023-02-27T20:15:22.236Z,3.90
2023-02-27T20:20:24.933Z,4.00
2023-02-27T20:25:29.764Z,3.60
2023-02-27T20:30:32.632Z,3.90
2023-02-27T20:35:38.745Z,4.20
2023-02-27T20:40:41.433Z,3.93
2023-02-27T20:45:44.044Z,4.47
2023-02-27T20:50:46.920Z,4.00
2023-02-27T20:55:49.954Z,3.63
2023-02-27T21:00:52.648Z,3.57
2023-02-27T21:05:58.306Z,4.93
2023-02-27T21:11:16.442Z,4.03
2023-02-27T21:16:19.157Z,3.80
2023-02-27T21:21:28.599Z,4.10
2023-02-27T21:26:38.073Z,4.13
2023-02-27T21:31:45.242Z,3.90
2023-02-27T21:36:48.407Z,4.50
2023-02-27T21:41:50.984Z,4.37
2023-02-27T21:46:54.517Z,4.83
2023-02-27T21:51:57.346Z,4.97
2023-02-27T21:57:02.592Z,4.00
2023-02-27T22:02:05.830Z,4.23
2023-02-27T22:07:11.079Z,4.20
2023-02-27T22:12:15.872Z,4.30
2023-02-27T22:17:18.729Z,4.63
2023-02-27T22:22:21.386Z,4.67
2023-02-27T22:27:24.096Z,5.10
2023-02-27T22:32:26.774Z,5.87
2023-02-27T22:37:29.404Z,5.23
2023-02-27T22:42:31.962Z,4.77
2023-02-27T22:47:34.718Z,4.93
2023-02-27T22:52:37.895Z,5.17
2023-02-27T22:57:40.725Z,4.60
2023-02-27T23:02:43.412Z,5.07
2023-02-27T23:07:47.256Z,5.97
2023-02-27T23:12:49.941Z,6.57
2023-02-27T23:17:58.272Z,4.90
2023-02-27T23:23:01.281Z,5.03
2023-02-27T23:28:05.376Z,4.67
2023-02-27T23:33:07.990Z,5.13
2023-02-27T23:38:10.656Z,4.77
2023-02-27T23:43:32.776Z,4.87
2023-02-27T23:48:35.691Z,5.13
2023-02-27T23:53:40.433Z,5.13
2023-02-27T23:58:43.861Z,4.73
